createdAt,value
2022-10-05T00:00:46.114Z,4
2022-10-05T00:02:46.229Z,4
2022-10-05T00:04:46.336Z,3
2022-10-05T00:06:46.669Z,3
2022-10-05T00:08:46.539Z,3
2022-10-05T00:10:46.641Z,3
2022-10-05T00:12:46.733Z,3
2022-10-05T00:14:46.823Z,3
2022-10-05T00:16:47.278Z,3
2022-10-05T00:18:47.031Z,3
2022-10-05T00:20:47.291Z,3
2022-10-05T00:22:47.390Z,3
2022-10-05T00:24:47.496Z,3
2022-10-05T00:28:47.721Z,3
2022-10-05T00:30:47.831Z,3
2022-10-05T00:34:48.063Z,3
2022-10-05T00:36:48.747Z,4
2022-10-05T00:38:48.264Z,5
2022-10-05T00:40:48.364Z,5
2022-10-05T00:42:48.476Z,6
2022-10-05T00:44:48.575Z,5
2022-10-05T00:46:48.957Z,5
2022-10-05T00:48:48.766Z,5
2022-10-05T00:50:48.855Z,6
2022-10-05T00:52:49.041Z,6
2022-10-05T00:54:49.055Z,6
2022-10-05T00:56:49.242Z,6
2022-10-05T00:58:49.253Z,6
2022-10-05T01:00:49.394Z,5
2022-10-05T01:02:49.509Z,5
2022-10-05T01:04:49.513Z,5
2022-10-05T01:06:49.615Z,4
2022-10-05T01:08:49.702Z,3
2022-10-05T01:10:49.859Z,3
2022-10-05T01:12:49.928Z,3
2022-10-05T01:14:50.019Z,3
2022-10-05T01:16:50.737Z,3
2022-10-05T01:18:50.271Z,3
2022-10-05T01:20:50.370Z,3
2022-10-05T01:22:50.525Z,3
2022-10-05T01:24:50.565Z,3
2022-10-05T01:26:50.606Z,3
2022-10-05T01:28:50.695Z,3
2022-10-05T01:30:50.840Z,3
2022-10-05T01:32:50.905Z,3
2022-10-05T01:34:50.976Z,3
2022-10-05T01:36:51.084Z,3
2022-10-05T01:40:51.276Z,4
2022-10-05T01:42:51.383Z,4
2022-10-05T01:44:51.466Z,4
2022-10-05T01:46:51.562Z,3
2022-10-05T01:48:51.669Z,3
2022-10-05T01:50:51.797Z,3
2022-10-05T01:52:51.862Z,2
2022-10-05T01:54:51.954Z,3
2022-10-05T01:56:52.033Z,3
2022-10-05T01:58:52.136Z,3
2022-10-05T02:00:52.258Z,3
2022-10-05T02:02:52.327Z,3
2022-10-05T02:05:02.612Z,3
2022-10-05T02:08:52.612Z,4
2022-10-05T02:10:52.768Z,4
2022-10-05T02:12:52.785Z,4
2022-10-05T02:14:52.888Z,4
2022-10-05T02:16:52.977Z,4
2022-10-05T02:18:53.067Z,4
2022-10-05T02:20:53.165Z,5
2022-10-05T02:22:53.276Z,4
2022-10-05T02:26:53.447Z,4
2022-10-05T02:28:53.534Z,5
2022-10-05T02:30:53.634Z,5
2022-10-05T02:32:53.730Z,5
2022-10-05T02:34:53.822Z,6
2022-10-05T02:36:53.910Z,6
2022-10-05T02:38:54.013Z,5
2022-10-05T02:40:54.094Z,4
2022-10-05T02:42:54.191Z,4
2022-10-05T02:44:54.280Z,4
2022-10-05T02:46:57.214Z,3
2022-10-05T02:48:54.471Z,3
2022-10-05T02:50:54.607Z,4
2022-10-05T02:52:54.656Z,3
2022-10-05T02:54:54.741Z,3
2022-10-05T02:58:54.915Z,3
2022-10-05T03:00:55.060Z,4
2022-10-05T03:02:55.090Z,4
2022-10-05T03:04:55.274Z,3
2022-10-05T03:06:55.277Z,3
2022-10-05T03:08:55.364Z,3
2022-10-05T03:12:55.551Z,3
2022-10-05T03:16:55.735Z,4
2022-10-05T03:18:55.819Z,3
2022-10-05T03:20:55.898Z,3
2022-10-05T03:22:56.041Z,3
2022-10-05T03:24:56.091Z,4
2022-10-05T03:26:56.179Z,4
2022-10-05T03:28:56.241Z,5
2022-10-05T03:30:56.405Z,9
2022-10-05T03:32:56.422Z,11
2022-10-05T03:34:56.509Z,13
2022-10-05T03:36:56.611Z,11
2022-10-05T03:38:56.687Z,11
2022-10-05T03:40:56.776Z,11
2022-10-05T03:42:56.862Z,7
2022-10-05T03:44:56.964Z,8
2022-10-05T03:46:57.044Z,8
2022-10-05T03:48:57.125Z,7
2022-10-05T03:50:57.224Z,4
2022-10-05T03:52:57.306Z,4
2022-10-05T03:54:57.397Z,5
2022-10-05T03:56:57.486Z,4
2022-10-05T03:58:57.565Z,4
2022-10-05T04:00:57.625Z,4
2022-10-05T04:02:57.755Z,4
2022-10-05T04:04:57.778Z,3
2022-10-05T04:06:57.871Z,4
2022-10-05T04:09:28.014Z,3
2022-10-05T04:11:28.134Z,3
2022-10-05T04:15:28.363Z,3
2022-10-05T04:17:28.487Z,3
2022-10-05T04:19:28.589Z,3
2022-10-05T04:25:28.930Z,3
2022-10-05T04:27:29.025Z,4
2022-10-05T04:29:29.199Z,3
2022-10-05T04:31:29.335Z,4
2022-10-05T04:33:29.359Z,4
2022-10-05T04:35:29.474Z,4
2022-10-05T04:37:29.580Z,6
2022-10-05T04:39:29.662Z,6
2022-10-05T04:41:29.780Z,5
2022-10-05T04:43:29.890Z,6
2022-10-05T04:45:30.001Z,6
2022-10-05T04:47:30.118Z,6
2022-10-05T04:49:30.269Z,6
2022-10-05T04:51:30.323Z,7
2022-10-05T04:53:30.448Z,6
2022-10-05T04:55:30.563Z,6
2022-10-05T04:57:30.645Z,6
2022-10-05T04:59:30.745Z,6
2022-10-05T05:01:30.852Z,6
2022-10-05T05:03:30.983Z,6
2022-10-05T05:05:31.063Z,6
2022-10-05T05:07:31.140Z,6
2022-10-05T05:09:31.296Z,8
2022-10-05T05:11:31.416Z,11
2022-10-05T05:13:31.447Z,9
2022-10-05T05:15:31.545Z,9
2022-10-05T05:17:31.665Z,8
2022-10-05T05:19:31.761Z,8
2022-10-05T05:21:31.886Z,9
2022-10-05T05:23:31.992Z,8
2022-10-05T05:25:32.077Z,9
2022-10-05T05:27:32.154Z,12
2022-10-05T05:29:32.319Z,13
2022-10-05T05:31:32.475Z,12
2022-10-05T05:33:32.461Z,10
2022-10-05T05:37:32.658Z,9
2022-10-05T05:39:32.767Z,9
2022-10-05T05:41:32.877Z,10
2022-10-05T05:43:32.987Z,9
2022-10-05T05:45:33.097Z,9
2022-10-05T05:47:33.337Z,8
2022-10-05T05:49:33.303Z,8
2022-10-05T05:51:33.412Z,8
2022-10-05T05:53:33.570Z,7
2022-10-05T05:55:33.608Z,7
2022-10-05T05:57:33.702Z,8
2022-10-05T06:01:34.214Z,8
2022-10-05T06:03:33.992Z,9
2022-10-05T06:05:34.113Z,8
2022-10-05T06:07:34.207Z,8
2022-10-05T06:09:34.313Z,8
2022-10-05T06:11:34.424Z,8
2022-10-05T06:13:34.529Z,9
2022-10-05T06:15:34.610Z,8
2022-10-05T06:17:34.712Z,8
2022-10-05T06:21:34.923Z,9
2022-10-05T06:23:35.032Z,8
2022-10-05T06:25:35.136Z,8
2022-10-05T06:27:35.231Z,8
2022-10-05T06:29:35.321Z,9
2022-10-05T06:31:35.504Z,9
2022-10-05T06:33:35.521Z,8
2022-10-05T06:35:35.633Z,8
2022-10-05T06:37:35.710Z,8
2022-10-05T06:39:35.948Z,8
2022-10-05T06:41:35.890Z,9
2022-10-05T06:43:36.015Z,10
2022-10-05T06:45:36.124Z,9
2022-10-05T06:47:36.173Z,10
2022-10-05T06:49:36.268Z,10
2022-10-05T06:51:36.419Z,9
2022-10-05T06:53:36.459Z,10
2022-10-05T06:57:36.690Z,10
2022-10-05T06:59:36.747Z,11
2022-10-05T07:01:36.934Z,11
2022-10-05T07:03:36.942Z,10
2022-10-05T07:05:37.173Z,11
2022-10-05T07:07:37.134Z,10
2022-10-05T07:09:37.207Z,10
2022-10-05T07:11:37.292Z,10
2022-10-05T07:13:37.429Z,9
2022-10-05T07:15:37.477Z,10
2022-10-05T07:17:37.560Z,9
2022-10-05T07:19:37.671Z,8
2022-10-05T07:21:37.764Z,9
2022-10-05T07:23:37.850Z,9
2022-10-05T07:25:37.937Z,8
2022-10-05T07:27:38.035Z,8
2022-10-05T07:29:38.132Z,8
2022-10-05T07:31:38.214Z,8
2022-10-05T07:33:38.318Z,9
2022-10-05T07:35:38.405Z,9
2022-10-05T07:37:38.487Z,9
2022-10-05T07:39:58.970Z,9
2022-10-05T07:41:38.663Z,9
2022-10-05T07:45:38.866Z,10
2022-10-05T07:47:38.930Z,10
2022-10-05T07:49:39.013Z,10
2022-10-05T07:51:39.099Z,11
2022-10-05T07:53:39.180Z,11
2022-10-05T07:55:39.314Z,11
2022-10-05T07:57:39.395Z,11
2022-10-05T07:59:39.459Z,9
2022-10-05T08:01:39.612Z,9
2022-10-05T08:03:39.668Z,9
2022-10-05T08:07:39.823Z,9
2022-10-05T08:09:39.901Z,8
2022-10-05T08:11:39.989Z,8
2022-10-05T08:13:40.079Z,6
2022-10-05T08:15:40.225Z,5
2022-10-05T08:17:40.257Z,6
2022-10-05T08:19:40.328Z,5
2022-10-05T08:21:40.416Z,5
2022-10-05T08:27:40.687Z,4
2022-10-05T08:29:40.781Z,4
2022-10-05T08:31:41.028Z,5
2022-10-05T08:33:40.948Z,4
2022-10-05T08:35:41.031Z,4
2022-10-05T08:38:11.163Z,5
2022-10-05T08:40:11.270Z,4
2022-10-05T08:42:11.376Z,4
2022-10-05T08:44:11.501Z,4
2022-10-05T08:46:11.623Z,5
2022-10-05T08:48:11.668Z,5
2022-10-05T08:50:11.780Z,4
2022-10-05T08:52:11.886Z,5
2022-10-05T08:54:11.982Z,5
2022-10-05T08:56:15.303Z,4
2022-10-05T08:58:12.190Z,5
2022-10-05T09:02:12.408Z,4
2022-10-05T09:04:12.487Z,4
2022-10-05T09:06:12.575Z,4
2022-10-05T09:12:12.879Z,4
2022-10-05T09:16:13.158Z,4
2022-10-05T09:18:13.189Z,4
2022-10-05T09:20:13.275Z,4
2022-10-05T09:22:13.398Z,4
2022-10-05T09:24:13.590Z,5
2022-10-05T09:26:13.609Z,4
2022-10-05T09:28:13.677Z,3
2022-10-05T09:30:13.760Z,4
2022-10-05T09:32:16.502Z,4
2022-10-05T09:34:13.960Z,4
2022-10-05T09:36:14.060Z,4
2022-10-05T09:38:14.134Z,4
2022-10-05T09:40:14.228Z,4
2022-10-05T09:42:14.334Z,4
2022-10-05T09:44:14.429Z,4
2022-10-05T09:46:14.545Z,4
2022-10-05T09:48:14.599Z,3
2022-10-05T09:52:18.744Z,3
2022-10-05T09:54:14.838Z,3
2022-10-05T09:58:15.028Z,3
2022-10-05T10:00:15.141Z,3
2022-10-05T10:02:15.391Z,3
2022-10-05T10:04:15.297Z,3
2022-10-05T10:06:15.373Z,3
2022-10-05T10:08:15.466Z,3
2022-10-05T10:10:15.554Z,3
2022-10-05T10:12:15.655Z,2
2022-10-05T10:14:15.738Z,2
2022-10-05T10:16:15.907Z,2
2022-10-05T10:18:15.907Z,3
2022-10-05T10:20:16.005Z,2
2022-10-05T10:24:16.173Z,2
2022-10-05T10:26:16.276Z,2
2022-10-05T10:28:16.443Z,2
2022-10-05T10:30:16.538Z,2
2022-10-05T10:32:16.541Z,2
2022-10-05T10:34:16.619Z,2
2022-10-05T10:36:16.697Z,1
2022-10-05T10:38:16.786Z,2
2022-10-05T10:40:16.880Z,2
2022-10-05T10:44:17.036Z,2
2022-10-05T10:48:17.169Z,2
2022-10-05T10:50:17.257Z,2
2022-10-05T10:52:17.522Z,2
2022-10-05T10:54:17.426Z,2
2022-10-05T10:56:17.518Z,3
2022-10-05T10:58:17.599Z,2
2022-10-05T11:00:17.644Z,2
2022-10-05T11:02:47.867Z,2
2022-10-05T11:06:48.022Z,2
2022-10-05T11:08:48.117Z,2
2022-10-05T11:10:48.237Z,2
2022-10-05T11:12:48.392Z,1
2022-10-05T11:14:48.438Z,1
2022-10-05T11:16:48.768Z,2
2022-10-05T11:18:48.646Z,1
2022-10-05T11:20:48.749Z,2
2022-10-05T11:22:48.845Z,2
2022-10-05T11:24:48.968Z,1
2022-10-05T11:26:49.375Z,2
2022-10-05T11:28:49.171Z,2
2022-10-05T11:30:51.164Z,2
2022-10-05T11:32:49.416Z,2
2022-10-05T11:36:49.541Z,2
2022-10-05T11:38:49.619Z,1
2022-10-05T11:40:49.723Z,2
2022-10-05T11:42:49.832Z,2
2022-10-05T11:44:49.925Z,2
2022-10-05T11:46:50.112Z,1
2022-10-05T11:48:50.116Z,2
2022-10-05T11:50:50.211Z,2
2022-10-05T11:55:11.116Z,1
2022-10-05T11:56:53.819Z,2
2022-10-05T11:58:50.589Z,1
2022-10-05T12:00:50.683Z,2
2022-10-05T12:02:50.880Z,2
2022-10-05T12:04:50.878Z,1
2022-10-05T12:06:51.327Z,1
2022-10-05T12:08:51.121Z,2
2022-10-05T12:12:51.278Z,1
2022-10-05T12:14:51.322Z,2
2022-10-05T12:16:51.419Z,2
2022-10-05T12:20:51.612Z,1
2022-10-05T12:22:51.822Z,2
2022-10-05T12:24:51.761Z,1
2022-10-05T12:26:51.850Z,2
2022-10-05T12:30:52.030Z,2
2022-10-05T12:32:52.110Z,2
2022-10-05T12:34:52.248Z,1
2022-10-05T12:37:03.954Z,2
2022-10-05T12:38:52.367Z,2
2022-10-05T12:40:52.456Z,2
2022-10-05T12:42:52.545Z,1
2022-10-05T12:44:52.618Z,1
2022-10-05T12:46:52.714Z,2
2022-10-05T12:50:52.865Z,1
2022-10-05T12:52:52.955Z,2
2022-10-05T12:54:53.034Z,2
2022-10-05T12:59:23.262Z,1
2022-10-05T13:01:23.478Z,1
2022-10-05T13:03:23.497Z,1
2022-10-05T13:05:23.612Z,2
2022-10-05T13:07:23.720Z,1
2022-10-05T13:09:23.830Z,1
2022-10-05T13:11:24.114Z,1
2022-10-05T13:13:24.041Z,2
2022-10-05T13:15:24.206Z,1
2022-10-05T13:17:24.296Z,2
2022-10-05T13:19:24.359Z,2
2022-10-05T13:21:24.460Z,2
2022-10-05T13:23:24.575Z,2
2022-10-05T13:25:24.672Z,1
2022-10-05T13:27:24.772Z,2
2022-10-05T13:31:25.063Z,1
2022-10-05T13:33:25.113Z,1
2022-10-05T13:35:25.216Z,1
2022-10-05T13:37:25.424Z,1
2022-10-05T13:39:25.396Z,2
2022-10-05T13:41:25.498Z,1
2022-10-05T13:43:25.645Z,2
2022-10-05T13:45:25.875Z,1
2022-10-05T13:47:25.815Z,2
2022-10-05T13:49:25.905Z,2
2022-10-05T13:53:26.129Z,2
2022-10-05T13:55:26.229Z,2
2022-10-05T13:57:26.310Z,2
2022-10-05T13:59:26.399Z,2
2022-10-05T14:01:26.487Z,2
2022-10-05T14:03:26.633Z,2
2022-10-05T14:05:26.696Z,1
2022-10-05T14:07:26.766Z,1
2022-10-05T14:09:26.866Z,1
2022-10-05T14:11:26.979Z,1
2022-10-05T14:13:27.287Z,2
2022-10-05T14:15:27.139Z,2
2022-10-05T14:17:30.639Z,2
2022-10-05T14:19:27.326Z,1
2022-10-05T14:21:27.415Z,2
2022-10-05T14:23:27.510Z,2
2022-10-05T14:25:27.606Z,2
2022-10-05T14:27:27.706Z,2
2022-10-05T14:29:27.804Z,2
2022-10-05T14:31:27.969Z,2
2022-10-05T14:33:27.958Z,2
2022-10-05T14:35:28.038Z,2
2022-10-05T14:37:28.125Z,2
2022-10-05T14:39:28.234Z,2
2022-10-05T14:43:28.394Z,2
2022-10-05T14:45:28.635Z,3
2022-10-05T14:47:28.573Z,3
2022-10-05T14:49:28.704Z,3
2022-10-05T14:51:28.740Z,3
2022-10-05T14:53:28.880Z,3
2022-10-05T14:55:28.934Z,3
2022-10-05T14:57:59.020Z,2
2022-10-05T14:59:59.139Z,2
2022-10-05T15:01:59.289Z,2
2022-10-05T15:03:59.357Z,2
2022-10-05T15:05:59.536Z,2
2022-10-05T15:07:59.578Z,2
2022-10-05T15:11:59.859Z,2
2022-10-05T15:13:59.916Z,4
2022-10-05T15:16:00.110Z,2
2022-10-05T15:18:00.115Z,2
2022-10-05T15:20:00.244Z,4
2022-10-05T15:22:00.343Z,5
2022-10-05T15:24:00.411Z,5
2022-10-05T15:26:00.520Z,4
2022-10-05T15:28:00.665Z,3
2022-10-05T15:30:00.732Z,3
2022-10-05T15:32:00.855Z,4
2022-10-05T15:34:00.965Z,5
2022-10-05T15:36:01.167Z,4
2022-10-05T15:38:01.177Z,4
2022-10-05T15:40:01.280Z,4
2022-10-05T15:42:01.374Z,3
2022-10-05T15:44:01.558Z,3
2022-10-05T15:46:01.750Z,3
2022-10-05T15:48:01.706Z,4
2022-10-05T15:50:01.851Z,3
2022-10-05T15:52:01.920Z,4
2022-10-05T15:54:06.095Z,4
2022-10-05T15:56:02.074Z,4
2022-10-05T15:58:02.183Z,5
2022-10-05T16:00:02.273Z,6
2022-10-05T16:02:02.482Z,7
2022-10-05T16:04:02.479Z,7
2022-10-05T16:06:02.580Z,8
2022-10-05T16:08:02.668Z,8
2022-10-05T16:10:02.768Z,9
2022-10-05T16:14:02.956Z,9
2022-10-05T16:16:03.040Z,7
2022-10-05T16:18:03.163Z,7
2022-10-05T16:20:03.243Z,6
2022-10-05T16:22:03.315Z,8
2022-10-05T16:24:03.429Z,7
2022-10-05T16:28:05.679Z,6
2022-10-05T16:30:03.683Z,6
2022-10-05T16:32:03.786Z,6
2022-10-05T16:34:03.868Z,6
2022-10-05T16:36:04.021Z,5
2022-10-05T16:38:04.058Z,5
2022-10-05T16:40:04.199Z,4
2022-10-05T16:42:04.229Z,5
2022-10-05T16:44:04.323Z,4
2022-10-05T16:46:04.536Z,4
2022-10-05T16:48:04.502Z,5
2022-10-05T16:50:04.711Z,5
2022-10-05T16:54:04.758Z,5
2022-10-05T16:56:04.969Z,5
2022-10-05T16:58:04.931Z,5
2022-10-05T17:00:05.101Z,4
2022-10-05T17:02:05.157Z,4
2022-10-05T17:04:05.220Z,5
2022-10-05T17:06:05.298Z,5
2022-10-05T17:10:05.441Z,6
2022-10-05T17:12:05.522Z,5
2022-10-05T17:14:05.610Z,7
2022-10-05T17:16:05.803Z,7
2022-10-05T17:18:05.783Z,4
2022-10-05T17:20:05.866Z,5
2022-10-05T17:22:35.991Z,5
2022-10-05T17:24:36.096Z,5
2022-10-05T17:26:36.204Z,8
2022-10-05T17:28:36.368Z,6
2022-10-05T17:30:36.489Z,5
2022-10-05T17:32:36.523Z,6
2022-10-05T17:34:36.643Z,5
2022-10-05T17:36:36.756Z,5
2022-10-05T17:38:36.844Z,4
2022-10-05T17:40:36.959Z,6
2022-10-05T17:42:37.062Z,5
2022-10-05T17:44:37.174Z,6
2022-10-05T17:46:37.339Z,5
2022-10-05T17:48:37.404Z,6
2022-10-05T17:50:37.488Z,5
2022-10-05T17:52:37.601Z,6
2022-10-05T17:54:37.711Z,6
2022-10-05T17:56:37.805Z,5
2022-10-05T18:00:37.997Z,5
2022-10-05T18:02:38.174Z,6
2022-10-05T18:04:38.218Z,9
2022-10-05T18:06:38.543Z,11
2022-10-05T18:08:38.451Z,7
2022-10-05T18:10:41.216Z,6
2022-10-05T18:12:38.618Z,6
2022-10-05T18:14:38.718Z,5
2022-10-05T18:16:38.802Z,7
2022-10-05T18:18:38.906Z,6
2022-10-05T18:20:38.996Z,5
2022-10-05T18:22:39.108Z,6
2022-10-05T18:24:39.215Z,6
2022-10-05T18:26:39.374Z,6
2022-10-05T18:30:39.493Z,6
2022-10-05T18:32:39.588Z,7
2022-10-05T18:34:39.737Z,9
2022-10-05T18:36:39.758Z,10
2022-10-05T18:38:39.876Z,12
2022-10-05T18:40:39.969Z,11
2022-10-05T18:42:40.049Z,11
2022-10-05T18:44:40.134Z,11
2022-10-05T18:46:40.319Z,10
2022-10-05T18:48:40.323Z,9
2022-10-05T18:52:40.538Z,9
2022-10-05T18:54:40.625Z,8
2022-10-05T18:56:40.737Z,6
2022-10-05T18:58:40.837Z,6
2022-10-05T19:00:40.938Z,6
2022-10-05T19:02:41.122Z,6
2022-10-05T19:04:41.119Z,8
2022-10-05T19:06:41.262Z,9
2022-10-05T19:08:41.304Z,10
2022-10-05T19:10:41.394Z,13
2022-10-05T19:12:41.742Z,10
2022-10-05T19:14:41.567Z,10
2022-10-05T19:16:41.651Z,8
2022-10-05T19:18:41.741Z,10
2022-10-05T19:20:41.852Z,8
2022-10-05T19:22:42.010Z,9
2022-10-05T19:24:42.010Z,11
2022-10-05T19:26:42.195Z,18
2022-10-05T19:28:42.248Z,21
2022-10-05T19:30:42.294Z,17
2022-10-05T19:34:42.466Z,13
2022-10-05T19:36:42.574Z,14
2022-10-05T19:38:42.658Z,14
2022-10-05T19:40:42.745Z,13
2022-10-05T19:42:42.860Z,9
2022-10-05T19:44:42.942Z,8
2022-10-05T19:46:43.085Z,7
2022-10-05T19:48:43.159Z,7
2022-10-05T19:50:43.215Z,5
2022-10-05T19:52:47.553Z,6
2022-10-05T19:54:43.398Z,6
2022-10-05T19:56:43.495Z,6
2022-10-05T19:58:43.587Z,6
2022-10-05T20:00:43.666Z,7
2022-10-05T20:02:43.817Z,13
2022-10-05T20:04:43.855Z,12
2022-10-05T20:06:43.950Z,12
2022-10-05T20:08:44.045Z,13
2022-10-05T20:10:44.130Z,13
2022-10-05T20:12:44.239Z,12
2022-10-05T20:14:44.292Z,13
2022-10-05T20:18:44.490Z,12
2022-10-05T20:20:47.251Z,13
2022-10-05T20:22:44.680Z,11
2022-10-05T20:24:44.754Z,11
2022-10-05T20:28:45.024Z,13
2022-10-05T20:30:45.065Z,11
2022-10-05T20:32:45.205Z,11
2022-10-05T20:34:45.191Z,10
2022-10-05T20:36:45.280Z,11
2022-10-05T20:38:45.381Z,14
2022-10-05T20:40:45.472Z,14
2022-10-05T20:42:45.574Z,13
2022-10-05T20:44:45.660Z,11
2022-10-05T20:46:45.825Z,9
2022-10-05T20:48:45.838Z,9
2022-10-05T20:50:45.939Z,9
2022-10-05T20:52:46.028Z,10
2022-10-05T20:56:46.185Z,10
2022-10-05T20:59:16.308Z,9
2022-10-05T21:01:16.528Z,8
2022-10-05T21:03:16.564Z,9
2022-10-05T21:05:16.780Z,9
2022-10-05T21:07:16.843Z,9
2022-10-05T21:09:16.908Z,9
2022-10-05T21:11:17.036Z,10
2022-10-05T21:13:17.266Z,9
2022-10-05T21:15:17.255Z,10
2022-10-05T21:17:17.356Z,9
2022-10-05T21:19:17.487Z,10
2022-10-05T21:21:17.596Z,11
2022-10-05T21:23:17.717Z,11
2022-10-05T21:25:17.835Z,11
2022-10-05T21:27:17.946Z,11
2022-10-05T21:29:18.056Z,11
2022-10-05T21:31:18.249Z,13
2022-10-05T21:33:18.285Z,13
2022-10-05T21:35:18.403Z,14
2022-10-05T21:37:18.502Z,14
2022-10-05T21:39:18.609Z,13
2022-10-05T21:41:18.732Z,10
2022-10-05T21:43:18.852Z,8
2022-10-05T21:45:18.963Z,7
2022-10-05T21:47:19.062Z,7
2022-10-05T21:49:19.873Z,8
2022-10-05T21:51:19.257Z,7
2022-10-05T21:53:19.385Z,7
2022-10-05T21:55:19.468Z,8
2022-10-05T21:57:19.594Z,9
2022-10-05T21:59:19.698Z,8
2022-10-05T22:01:22.652Z,7
2022-10-05T22:03:19.908Z,7
2022-10-05T22:05:20.154Z,6
2022-10-05T22:07:20.126Z,5
2022-10-05T22:09:20.229Z,4
2022-10-05T22:11:20.327Z,4
2022-10-05T22:13:20.437Z,4
2022-10-05T22:15:20.547Z,4
2022-10-05T22:17:20.619Z,4
2022-10-05T22:19:20.727Z,4
2022-10-05T22:21:20.840Z,4
2022-10-05T22:23:20.964Z,4
2022-10-05T22:25:21.091Z,4
2022-10-05T22:27:21.153Z,4
2022-10-05T22:29:21.248Z,4
2022-10-05T22:31:21.414Z,5
2022-10-05T22:33:21.643Z,4
2022-10-05T22:35:21.590Z,5
2022-10-05T22:37:21.695Z,4
2022-10-05T22:39:21.796Z,5
2022-10-05T22:41:21.908Z,4
2022-10-05T22:43:22.024Z,4
2022-10-05T22:45:22.115Z,4
2022-10-05T22:49:22.280Z,4
2022-10-05T22:51:22.387Z,5
2022-10-05T22:53:22.505Z,4
2022-10-05T22:55:22.606Z,4
2022-10-05T22:57:22.718Z,4
2022-10-05T22:59:22.820Z,4
2022-10-05T23:01:22.980Z,3
2022-10-05T23:03:23.042Z,4
2022-10-05T23:05:23.193Z,5
2022-10-05T23:07:23.242Z,5
2022-10-05T23:09:23.331Z,5
2022-10-05T23:11:23.433Z,5
2022-10-05T23:13:23.580Z,5
2022-10-05T23:15:23.638Z,5
2022-10-05T23:17:23.731Z,5
2022-10-05T23:19:23.819Z,5
2022-10-05T23:21:23.932Z,4
2022-10-05T23:23:24.031Z,5
2022-10-05T23:25:24.138Z,5
2022-10-05T23:27:24.298Z,4
2022-10-05T23:29:24.350Z,5
2022-10-05T23:31:24.428Z,6
2022-10-05T23:33:24.506Z,6
2022-10-05T23:35:24.625Z,6
2022-10-05T23:37:24.718Z,6
2022-10-05T23:39:24.824Z,6
2022-10-05T23:41:24.929Z,5
2022-10-05T23:43:25.003Z,6
2022-10-05T23:45:25.144Z,6
2022-10-05T23:47:25.230Z,6
2022-10-05T23:49:25.311Z,6
2022-10-05T23:51:25.373Z,5
2022-10-05T23:53:25.485Z,5
2022-10-05T23:57:25.676Z,5
2022-10-05T23:59:25.778Z,5
